sensor_id;sensor_type;location;lat;lon;timestamp;pressure;altitude;pressure_sealevel;temperature;humidity
25232;BME280;13176;51.140;6.290;2023-02-22T00:01:11;100844.16;;;11.97;81.57
25232;BME280;13176;51.140;6.290;2023-02-22T00:04:00;100760.63;;;11.36;81.95
25232;BME280;13176;51.140;6.290;2023-02-22T00:06:27;100745.75;;;11.40;81.92
25232;BME280;13176;51.140;6.290;2023-02-22T00:08:54;100750.97;;;11.40;82.30
25232;BME280;13176;51.140;6.290;2023-02-22T00:11:21;100806.16;;;11.75;82.31
25232;BME280;13176;51.140;6.290;2023-02-22T00:13:47;100829.03;;;11.64;83.12
25232;BME280;13176;51.140;6.290;2023-02-22T00:16:22;100807.97;;;11.70;83.16
25232;BME280;13176;51.140;6.290;2023-02-22T00:18:49;100787.34;;;11.52;83.04
25232;BME280;13176;51.140;6.290;2023-02-22T00:21:16;100800.78;;;11.84;82.53
25232;BME280;13176;51.140;6.290;2023-02-22T00:23:45;100700.91;;;11.14;82.80
25232;BME280;13176;51.140;6.290;2023-02-22T00:26:15;100823.38;;;11.88;82.83
25232;BME280;13176;51.140;6.290;2023-02-22T00:28:48;100795.69;;;11.75;83.11
25232;BME280;13176;51.140;6.290;2023-02-22T00:31:15;100756.09;;;11.46;83.41
25232;BME280;13176;51.140;6.290;2023-02-22T00:33:42;100782.97;;;11.57;83.48
25232;BME280;13176;51.140;6.290;2023-02-22T00:36:11;100789.63;;;11.74;83.78
25232;BME280;13176;51.140;6.290;2023-02-22T00:38:39;100792.25;;;11.73;83.84
25232;BME280;13176;51.140;6.290;2023-02-22T00:41:07;100809.41;;;11.89;83.56
25232;BME280;13176;51.140;6.290;2023-02-22T00:43:34;100822.38;;;11.95;83.27
25232;BME280;13176;51.140;6.290;2023-02-22T00:46:00;100806.09;;;11.78;83.01
25232;BME280;13176;51.140;6.290;2023-02-22T00:48:27;100771.66;;;11.55;83.57
25232;BME280;13176;51.140;6.290;2023-02-22T00:50:53;100706.78;;;11.27;82.98
25232;BME280;13176;51.140;6.290;2023-02-22T00:53:22;100800.97;;;11.72;82.85
25232;BME280;13176;51.140;6.290;2023-02-22T00:55:48;100792.47;;;11.61;82.87
25232;BME280;13176;51.140;6.290;2023-02-22T00:58:15;100730.28;;;11.28;82.89
25232;BME280;13176;51.140;6.290;2023-02-22T01:00:42;100816.59;;;11.76;83.15
25232;BME280;13176;51.140;6.290;2023-02-22T01:03:11;100769.94;;;11.51;83.27
25232;BME280;13176;51.140;6.290;2023-02-22T01:05:38;100638.94;;;10.72;83.28
25232;BME280;13176;51.140;6.290;2023-02-22T01:08:07;100809.59;;;11.77;83.69
25232;BME280;13176;51.140;6.290;2023-02-22T01:10:34;100789.63;;;11.74;83.59
25232;BME280;13176;51.140;6.290;2023-02-22T01:13:01;100704.28;;;11.22;83.56
25232;BME280;13176;51.140;6.290;2023-02-22T01:15:35;100780.16;;;11.66;83.26
25232;BME280;13176;51.140;6.290;2023-02-22T01:18:02;100672.28;;;11.08;83.55
25232;BME280;13176;51.140;6.290;2023-02-22T01:20:31;100787.84;;;11.76;83.76
25232;BME280;13176;51.140;6.290;2023-02-22T01:23:00;100686.31;;;11.01;84.14
25232;BME280;13176;51.140;6.290;2023-02-22T01:25:30;100695.56;;;11.23;84.14
25232;BME280;13176;51.140;6.290;2023-02-22T01:27:59;100612.59;;;10.87;83.52
25232;BME280;13176;51.140;6.290;2023-02-22T01:30:28;100534.28;;;10.37;83.68
25232;BME280;13176;51.140;6.290;2023-02-22T01:32:56;100660.81;;;11.17;83.76
25232;BME280;13176;51.140;6.290;2023-02-22T01:35:26;100672.88;;;11.25;83.59
25232;BME280;13176;51.140;6.290;2023-02-22T01:37:54;100733.47;;;11.45;83.75
25232;BME280;13176;51.140;6.290;2023-02-22T01:40:33;100717.72;;;11.49;83.51
25232;BME280;13176;51.140;6.290;2023-02-22T01:43:03;100653.81;;;11.20;83.18
25232;BME280;13176;51.140;6.290;2023-02-22T01:48:15;100712.53;;;11.48;84.00
25232;BME280;13176;51.140;6.290;2023-02-22T01:50:48;100742.69;;;11.68;83.92
25232;BME280;13176;51.140;6.290;2023-02-22T01:53:19;100707.25;;;11.51;84.21
25232;BME280;13176;51.140;6.290;2023-02-22T01:55:47;100600.53;;;10.80;83.57
25232;BME280;13176;51.140;6.290;2023-02-22T01:58:15;100621.31;;;10.86;84.20
25232;BME280;13176;51.140;6.290;2023-02-22T02:00:44;100629.81;;;10.97;84.26
25232;BME280;13176;51.140;6.290;2023-02-22T02:03:16;100669.44;;;11.23;83.67
25232;BME280;13176;51.140;6.290;2023-02-22T02:05:44;100535.97;;;10.40;83.96
25232;BME280;13176;51.140;6.290;2023-02-22T02:12:33;100707.44;;;11.39;83.87
25232;BME280;13176;51.140;6.290;2023-02-22T02:15:26;100750.53;;;11.67;83.78
25232;BME280;13176;51.140;6.290;2023-02-22T02:18:00;100643.81;;;10.93;84.30
25232;BME280;13176;51.140;6.290;2023-02-22T02:26:43;100723.13;;;11.39;84.75
25232;BME280;13176;51.140;6.290;2023-02-22T02:29:46;100742.88;;;11.58;84.46
25232;BME280;13176;51.140;6.290;2023-02-22T02:37:32;100712.81;;;11.30;85.02
25232;BME280;13176;51.140;6.290;2023-02-22T02:40:10;100730.13;;;11.38;84.92
25232;BME280;13176;51.140;6.290;2023-02-22T02:42:41;100729.84;;;11.55;84.54
25232;BME280;13176;51.140;6.290;2023-02-22T02:45:18;100592.94;;;10.65;84.66
25232;BME280;13176;51.140;6.290;2023-02-22T02:47:52;100584.06;;;10.77;84.78
25232;BME280;13176;51.140;6.290;2023-02-22T02:50:39;100626.38;;;10.95;84.96
25232;BME280;13176;51.140;6.290;2023-02-22T02:57:42;100728.94;;;11.57;84.80
25232;BME280;13176;51.140;6.290;2023-02-22T03:00:37;100570.25;;;10.72;84.50
25232;BME280;13176;51.140;6.290;2023-02-22T03:03:27;100717.75;;;11.48;84.85
25232;BME280;13176;51.140;6.290;2023-02-22T03:06:18;100712.47;;;11.51;84.59
25232;BME280;13176;51.140;6.290;2023-02-22T03:08:52;100717.06;;;11.37;84.93
25232;BME280;13176;51.140;6.290;2023-02-22T03:15:18;100659.31;;;11.02;84.45
25232;BME280;13176;51.140;6.290;2023-02-22T03:18:39;100618.16;;;10.66;84.86
25232;BME280;13176;51.140;6.290;2023-02-22T03:23:48;100722.78;;;11.07;85.18
25232;BME280;13176;51.140;6.290;2023-02-22T03:26:21;100684.06;;;10.80;85.17
25232;BME280;13176;51.140;6.290;2023-02-22T03:28:52;100718.91;;;10.76;85.14
25232;BME280;13176;51.140;6.290;2023-02-22T03:31:27;100543.03;;;9.72;84.63
25232;BME280;13176;51.140;6.290;2023-02-22T03:34:19;100722.19;;;10.90;84.82
25232;BME280;13176;51.140;6.290;2023-02-22T03:39:40;100708.38;;;10.82;84.82
25232;BME280;13176;51.140;6.290;2023-02-22T03:42:13;100676.22;;;10.79;84.54
25232;BME280;13176;51.140;6.290;2023-02-22T03:44:42;100604.00;;;10.25;84.46
25232;BME280;13176;51.140;6.290;2023-02-22T03:47:15;100665.81;;;10.77;84.96
25232;BME280;13176;51.140;6.290;2023-02-22T03:49:56;100702.06;;;10.97;84.82
25232;BME280;13176;51.140;6.290;2023-02-22T03:52:25;100591.97;;;10.17;83.78
25232;BME280;13176;51.140;6.290;2023-02-22T03:54:51;100692.97;;;10.64;84.40
25232;BME280;13176;51.140;6.290;2023-02-22T03:57:27;100694.53;;;10.77;83.85
25232;BME280;13176;51.140;6.290;2023-02-22T03:59:54;100593.69;;;10.18;84.34
25232;BME280;13176;51.140;6.290;2023-02-22T04:02:21;100589.03;;;10.37;84.06
25232;BME280;13176;51.140;6.290;2023-02-22T04:04:48;100695.09;;;10.97;83.74
25232;BME280;13176;51.140;6.290;2023-02-22T04:07:16;100683.56;;;11.10;82.97
25232;BME280;13176;51.140;6.290;2023-02-22T04:09:45;100541.00;;;9.92;82.62
25232;BME280;13176;51.140;6.290;2023-02-22T04:12:31;100673.09;;;10.56;83.60
25232;BME280;13176;51.140;6.290;2023-02-22T04:15:07;100692.81;;;10.76;83.54
25232;BME280;13176;51.140;6.290;2023-02-22T04:17:33;100642.06;;;10.38;84.00
25232;BME280;13176;51.140;6.290;2023-02-22T04:20:00;100663.44;;;10.62;83.94
25232;BME280;13176;51.140;6.290;2023-02-22T04:22:27;100669.50;;;10.64;83.64
25232;BME280;13176;51.140;6.290;2023-02-22T04:24:53;100612.47;;;10.39;83.57
25232;BME280;13176;51.140;6.290;2023-02-22T04:27:20;100479.69;;;9.70;83.05
25232;BME280;13176;51.140;6.290;2023-02-22T04:29:46;100556.31;;;10.17;82.78
25232;BME280;13176;51.140;6.290;2023-02-22T04:32:15;100667.63;;;10.74;82.77
25232;BME280;13176;51.140;6.290;2023-02-22T04:34:42;100567.50;;;10.25;82.14
25232;BME280;13176;51.140;6.290;2023-02-22T04:37:08;100633.84;;;10.63;81.37
25232;BME280;13176;51.140;6.290;2023-02-22T04:39:35;100459.91;;;9.54;81.35
25232;BME280;13176;51.140;6.290;2023-02-22T04:42:02;100634.94;;;10.49;81.48
25232;BME280;13176;51.140;6.290;2023-02-22T04:44:28;100513.47;;;9.76;82.25
25232;BME280;13176;51.140;6.290;2023-02-22T04:46:55;100627.38;;;10.32;81.92
25232;BME280;13176;51.140;6.290;2023-02-22T04:49:22;100588.44;;;10.19;81.02
25232;BME280;13176;51.140;6.290;2023-02-22T04:51:50;100529.78;;;9.87;81.96
25232;BME280;13176;51.140;6.290;2023-02-22T04:54:20;100608.09;;;10.42;81.64
25232;BME280;13176;51.140;6.290;2023-02-22T04:56:47;100605.56;;;10.36;81.38
25232;BME280;13176;51.140;6.290;2023-02-22T04:59:14;100496.19;;;9.69;81.21
25232;BME280;13176;51.140;6.290;2023-02-22T05:01:40;100623.66;;;10.48;81.29
25232;BME280;13176;51.140;6.290;2023-02-22T05:04:08;100513.69;;;9.58;79.92
25232;BME280;13176;51.140;6.290;2023-02-22T05:06:37;100601.28;;;10.32;81.23
25232;BME280;13176;51.140;6.290;2023-02-22T05:09:06;100541.72;;;10.06;81.68
25232;BME280;13176;51.140;6.290;2023-02-22T05:11:33;100451.38;;;9.46;81.56
25232;BME280;13176;51.140;6.290;2023-02-22T05:14:03;100539.44;;;9.82;81.67
25232;BME280;13176;51.140;6.290;2023-02-22T05:16:29;100636.91;;;10.33;80.70
25232;BME280;13176;51.140;6.290;2023-02-22T05:18:56;100608.22;;;10.33;80.96
25232;BME280;13176;51.140;6.290;2023-02-22T05:21:22;100597.75;;;10.36;81.17
25232;BME280;13176;51.140;6.290;2023-02-22T05:23:49;100542.53;;;10.11;80.59
25232;BME280;13176;51.140;6.290;2023-02-22T05:26:15;100566.81;;;10.13;80.50
25232;BME280;13176;51.140;6.290;2023-02-22T05:28:42;100628.91;;;10.45;80.34
25232;BME280;13176;51.140;6.290;2023-02-22T05:31:08;100618.69;;;10.30;80.66
25232;BME280;13176;51.140;6.290;2023-02-22T05:33:35;100612.72;;;10.24;81.38
25232;BME280;13176;51.140;6.290;2023-02-22T05:36:01;100609.22;;;10.25;80.63
25232;BME280;13176;51.140;6.290;2023-02-22T05:38:28;100550.84;;;9.72;81.88
25232;BME280;13176;51.140;6.290;2023-02-22T05:40:55;100398.00;;;9.12;80.88
25232;BME280;13176;51.140;6.290;2023-02-22T05:43:22;100539.28;;;9.91;79.79
25232;BME280;13176;51.140;6.290;2023-02-22T05:45:48;100575.44;;;10.18;80.19
25232;BME280;13176;51.140;6.290;2023-02-22T05:48:15;100608.19;;;10.36;80.08
25232;BME280;13176;51.140;6.290;2023-02-22T05:50:41;100548.75;;;9.98;80.57
25232;BME280;13176;51.140;6.290;2023-02-22T05:53:09;100422.44;;;9.02;79.38
25232;BME280;13176;51.140;6.290;2023-02-22T05:55:35;100487.44;;;9.73;79.86
25232;BME280;13176;51.140;6.290;2023-02-22T05:58:02;100445.44;;;9.33;80.04
25232;BME280;13176;51.140;6.290;2023-02-22T06:00:31;100477.19;;;9.61;80.33
25232;BME280;13176;51.140;6.290;2023-02-22T06:03:07;100594.25;;;10.37;79.71
25232;BME280;13176;51.140;6.290;2023-02-22T06:05:36;100570.41;;;10.06;79.79
25232;BME280;13176;51.140;6.290;2023-02-22T06:08:04;100430.66;;;9.37;79.81
25232;BME280;13176;51.140;6.290;2023-02-22T06:10:31;100540.13;;;9.94;80.37
25232;BME280;13176;51.140;6.290;2023-02-22T06:13:00;100506.22;;;9.96;79.98
25232;BME280;13176;51.140;6.290;2023-02-22T06:15:27;100509.75;;;9.92;79.90
25232;BME280;13176;51.140;6.290;2023-02-22T06:17:55;100577.84;;;10.31;80.04
25232;BME280;13176;51.140;6.290;2023-02-22T06:20:23;100474.59;;;9.61;80.20
25232;BME280;13176;51.140;6.290;2023-02-22T06:22:51;100580.91;;;9.97;79.73
25232;BME280;13176;51.140;6.290;2023-02-22T06:25:20;100592.66;;;10.27;80.22
25232;BME280;13176;51.140;6.290;2023-02-22T06:27:47;100385.75;;;9.20;79.66
25232;BME280;13176;51.140;6.290;2023-02-22T06:30:15;100492.81;;;9.61;79.47
25232;BME280;13176;51.140;6.290;2023-02-22T06:32:42;100585.72;;;10.28;80.15
25232;BME280;13176;51.140;6.290;2023-02-22T06:35:09;100582.13;;;10.35;79.91
25232;BME280;13176;51.140;6.290;2023-02-22T06:37:36;100447.03;;;9.43;79.63
25232;BME280;13176;51.140;6.290;2023-02-22T06:40:03;100551.59;;;9.83;79.79
25232;BME280;13176;51.140;6.290;2023-02-22T06:42:31;100550.66;;;9.85;80.13
25232;BME280;13176;51.140;6.290;2023-02-22T06:44:57;100582.38;;;10.17;80.96
25232;BME280;13176;51.140;6.290;2023-02-22T06:47:24;100549.66;;;9.94;80.84
25232;BME280;13176;51.140;6.290;2023-02-22T06:49:54;100561.00;;;9.91;81.51
25232;BME280;13176;51.140;6.290;2023-02-22T06:52:22;100498.88;;;9.64;81.46
25232;BME280;13176;51.140;6.290;2023-02-22T06:54:49;100435.16;;;9.24;81.40
25232;BME280;13176;51.140;6.290;2023-02-22T06:57:16;100543.97;;;9.66;80.92
25232;BME280;13176;51.140;6.290;2023-02-22T06:59:43;100573.84;;;10.06;81.12
25232;BME280;13176;51.140;6.290;2023-02-22T07:02:10;100542.66;;;9.99;80.57
25232;BME280;13176;51.140;6.290;2023-02-22T07:04:37;100588.28;;;10.29;80.57
25232;BME280;13176;51.140;6.290;2023-02-22T07:07:06;100562.34;;;10.20;80.49
25232;BME280;13176;51.140;6.290;2023-02-22T07:09:32;100578.66;;;10.34;79.95
25232;BME280;13176;51.140;6.290;2023-02-22T07:11:59;100514.81;;;10.04;79.80
25232;BME280;13176;51.140;6.290;2023-02-22T07:14:25;100584.84;;;10.29;79.72
25232;BME280;13176;51.140;6.290;2023-02-22T07:16:52;100546.16;;;9.98;80.00
25232;BME280;13176;51.140;6.290;2023-02-22T07:19:18;100461.47;;;9.67;79.64
25232;BME280;13176;51.140;6.290;2023-02-22T07:21:45;100571.72;;;10.33;79.92
25232;BME280;13176;51.140;6.290;2023-02-22T07:24:13;100477.78;;;9.81;80.26
25232;BME280;13176;51.140;6.290;2023-02-22T07:26:40;100454.53;;;9.66;80.11
25232;BME280;13176;51.140;6.290;2023-02-22T07:29:07;100540.44;;;10.33;79.89
25232;BME280;13176;51.140;6.290;2023-02-22T07:31:35;100554.44;;;10.26;80.41
25232;BME280;13176;51.140;6.290;2023-02-22T07:34:01;100564.69;;;10.38;80.48
25232;BME280;13176;51.140;6.290;2023-02-22T07:36:28;100540.44;;;10.33;79.57
25232;BME280;13176;51.140;6.290;2023-02-22T07:38:54;100561.25;;;10.36;80.11
25232;BME280;13176;51.140;6.290;2023-02-22T07:41:21;100528.59;;;10.12;80.25
25232;BME280;13176;51.140;6.290;2023-02-22T07:43:48;100542.09;;;10.37;79.96
25232;BME280;13176;51.140;6.290;2023-02-22T07:46:14;100466.47;;;9.82;80.46
25232;BME280;13176;51.140;6.290;2023-02-22T07:48:41;100442.31;;;9.71;79.64
25232;BME280;13176;51.140;6.290;2023-02-22T07:51:07;100526.63;;;10.25;80.22
25232;BME280;13176;51.140;6.290;2023-02-22T07:53:35;100530.03;;;10.30;79.63
25232;BME280;13176;51.140;6.290;2023-02-22T07:56:04;100545.50;;;10.42;79.87
25232;BME280;13176;51.140;6.290;2023-02-22T07:58:31;100570.34;;;10.64;79.46
25232;BME280;13176;51.140;6.290;2023-02-22T08:00:58;100515.06;;;10.43;79.07
25232;BME280;13176;51.140;6.290;2023-02-22T08:03:32;100556.22;;;10.76;78.76
25232;BME280;13176;51.140;6.290;2023-02-22T08:06:02;100557.00;;;10.82;79.01
25232;BME280;13176;51.140;6.290;2023-02-22T08:08:29;100532.88;;;10.68;78.80
25232;BME280;13176;51.140;6.290;2023-02-22T08:10:56;100503.59;;;10.54;79.01
25232;BME280;13176;51.140;6.290;2023-02-22T08:13:23;100449.56;;;10.08;79.00
25232;BME280;13176;51.140;6.290;2023-02-22T08:15:51;100549.28;;;10.76;79.67
25232;BME280;13176;51.140;6.290;2023-02-22T08:18:19;100525.06;;;10.68;79.49
25232;BME280;13176;51.140;6.290;2023-02-22T08:20:47;100544.78;;;10.84;79.75
25232;BME280;13176;51.140;6.290;2023-02-22T08:23:15;100540.38;;;10.88;79.63
25232;BME280;13176;51.140;6.290;2023-02-22T08:25:41;100521.47;;;10.75;79.61
25232;BME280;13176;51.140;6.290;2023-02-22T08:28:10;100546.47;;;10.88;80.01
25232;BME280;13176;51.140;6.290;2023-02-22T08:30:38;100516.41;;;10.66;79.88
25232;BME280;13176;51.140;6.290;2023-02-22T08:33:06;100484.34;;;10.58;79.56
25232;BME280;13176;51.140;6.290;2023-02-22T08:35:32;100523.97;;;10.81;80.03
25232;BME280;13176;51.140;6.290;2023-02-22T08:38:01;100536.00;;;10.90;80.23
25232;BME280;13176;51.140;6.290;2023-02-22T08:40:30;100520.44;;;10.85;79.97
25232;BME280;13176;51.140;6.290;2023-02-22T08:42:57;100525.53;;;10.91;80.15
25232;BME280;13176;51.140;6.290;2023-02-22T08:45:24;100538.38;;;11.02;79.93
25232;BME280;13176;51.140;6.290;2023-02-22T08:47:50;100520.31;;;10.90;80.08
25232;BME280;13176;51.140;6.290;2023-02-22T08:50:26;100548.41;;;11.24;79.27
25232;BME280;13176;51.140;6.290;2023-02-22T08:52:54;100527.69;;;11.14;79.21
25232;BME280;13176;51.140;6.290;2023-02-22T08:55:22;100503.34;;;11.13;79.10
25232;BME280;13176;51.140;6.290;2023-02-22T08:57:49;100495.75;;;11.01;79.65
25232;BME280;13176;51.140;6.290;2023-02-22T09:00:18;100543.59;;;11.47;79.70
25232;BME280;13176;51.140;6.290;2023-02-22T09:02:44;100476.41;;;11.11;79.67
25232;BME280;13176;51.140;6.290;2023-02-22T09:05:11;100501.97;;;11.38;79.22
25232;BME280;13176;51.140;6.290;2023-02-22T09:07:40;100508.78;;;11.45;79.59
25232;BME280;13176;51.140;6.290;2023-02-22T09:10:12;100524.03;;;11.66;78.96
25232;BME280;13176;51.140;6.290;2023-02-22T09:12:41;100530.88;;;11.73;78.97
25232;BME280;13176;51.140;6.290;2023-02-22T09:15:08;100520.28;;;11.79;78.37
25232;BME280;13176;51.140;6.290;2023-02-22T09:17:34;100502.22;;;11.68;78.90
25232;BME280;13176;51.140;6.290;2023-02-22T09:20:05;100504.72;;;11.73;78.71
25232;BME280;13176;51.140;6.290;2023-02-22T09:22:32;100487.47;;;11.66;79.06
25232;BME280;13176;51.140;6.290;2023-02-22T09:24:59;100533.63;;;12.05;78.13
25232;BME280;13176;51.140;6.290;2023-02-22T09:27:33;100504.94;;;12.03;77.35
25232;BME280;13176;51.140;6.290;2023-02-22T09:29:59;100485.03;;;11.98;77.29
25232;BME280;13176;51.140;6.290;2023-02-22T09:32:25;100434.94;;;11.78;77.96
25232;BME280;13176;51.140;6.290;2023-02-22T09:34:53;100527.47;;;12.44;77.65
25232;BME280;13176;51.140;6.290;2023-02-22T09:37:21;100427.59;;;11.93;77.35
25232;BME280;13176;51.140;6.290;2023-02-22T09:39:47;100485.69;;;12.41;77.42
25232;BME280;13176;51.140;6.290;2023-02-22T09:45:05;100524.03;;;12.76;76.45
25232;BME280;13176;51.140;6.290;2023-02-22T09:47:40;100512.50;;;12.83;75.49
25232;BME280;13176;51.140;6.290;2023-02-22T09:50:22;100507.97;;;12.91;75.43
25232;BME280;13176;51.140;6.290;2023-02-22T09:52:55;100383.09;;;12.30;75.38
25232;BME280;13176;51.140;6.290;2023-02-22T09:55:38;100360.28;;;12.35;75.17
25232;BME280;13176;51.140;6.290;2023-02-22T09:58:24;100433.94;;;12.83;75.16
25232;BME280;13176;51.140;6.290;2023-02-22T10:00:57;100299.78;;;12.15;75.15
25232;BME280;13176;51.140;6.290;2023-02-22T10:03:48;100424.03;;;12.96;74.32
25232;BME280;13176;51.140;6.290;2023-02-22T10:06:20;100493.16;;;13.51;74.40
25232;BME280;13176;51.140;6.290;2023-02-22T10:08:51;100431.16;;;13.21;74.06
25232;BME280;13176;51.140;6.290;2023-02-22T10:11:36;100490.59;;;13.78;73.12
25232;BME280;13176;51.140;6.290;2023-02-22T10:17:18;100484.38;;;14.10;72.30
25232;BME280;13176;51.140;6.290;2023-02-22T10:25:26;100423.13;;;14.11;70.66
25232;BME280;13176;51.140;6.290;2023-02-22T10:28:00;100481.06;;;14.57;69.25
25232;BME280;13176;51.140;6.290;2023-02-22T10:30:35;100473.91;;;14.62;68.23
25232;BME280;13176;51.140;6.290;2023-02-22T10:33:14;100459.88;;;14.63;68.46
25232;BME280;13176;51.140;6.290;2023-02-22T10:35:43;100449.06;;;14.72;68.79
25232;BME280;13176;51.140;6.290;2023-02-22T10:38:21;100460.41;;;14.96;67.99
25232;BME280;13176;51.140;6.290;2023-02-22T10:43:21;100459.66;;;15.86;66.57
25232;BME280;13176;51.140;6.290;2023-02-22T10:45:51;100425.25;;;16.75;62.31
25232;BME280;13176;51.140;6.290;2023-02-22T10:48:23;100324.44;;;17.26;59.78
25232;BME280;13176;51.140;6.290;2023-02-22T10:50:53;100363.34;;;18.12;56.07
25232;BME280;13176;51.140;6.290;2023-02-22T10:53:22;100324.63;;;17.94;55.82
25232;BME280;13176;51.140;6.290;2023-02-22T10:56:08;100455.56;;;18.86;54.80
25232;BME280;13176;51.140;6.290;2023-02-22T10:58:57;100470.34;;;19.24;53.86
25232;BME280;13176;51.140;6.290;2023-02-22T11:04:16;100456.84;;;19.60;52.24
25232;BME280;13176;51.140;6.290;2023-02-22T11:06:46;100421.63;;;19.43;51.35
25232;BME280;13176;51.140;6.290;2023-02-22T11:11:45;100449.00;;;19.74;50.77
25232;BME280;13176;51.140;6.290;2023-02-22T11:14:24;100455.66;;;19.81;50.16
25232;BME280;13176;51.140;6.290;2023-02-22T11:16:53;100256.81;;;18.78;49.45
25232;BME280;13176;51.140;6.290;2023-02-22T11:19:26;100455.66;;;19.81;49.14
25232;BME280;13176;51.140;6.290;2023-02-22T11:22:22;100434.47;;;19.66;49.24
25232;BME280;13176;51.140;6.290;2023-02-22T11:24:52;100434.47;;;19.81;48.74
25232;BME280;13176;51.140;6.290;2023-02-22T11:27:26;100415.50;;;20.04;49.44
25232;BME280;13176;51.140;6.290;2023-02-22T11:30:07;100363.56;;;19.71;48.79
25232;BME280;13176;51.140;6.290;2023-02-22T11:32:49;100312.69;;;19.20;49.08
25232;BME280;13176;51.140;6.290;2023-02-22T11:35:33;100385.44;;;19.59;48.09
25232;BME280;13176;51.140;6.290;2023-02-22T11:38:28;100439.63;;;20.15;48.19
25232;BME280;13176;51.140;6.290;2023-02-22T11:41:19;100421.13;;;19.67;47.50
25232;BME280;13176;51.140;6.290;2023-02-22T11:43:49;100439.19;;;20.07;49.39
25232;BME280;13176;51.140;6.290;2023-02-22T11:46:20;100423.97;;;19.95;49.02
25232;BME280;13176;51.140;6.290;2023-02-22T11:49:08;100433.81;;;19.93;49.60
25232;BME280;13176;51.140;6.290;2023-02-22T11:51:58;100426.63;;;19.95;49.41
25232;BME280;13176;51.140;6.290;2023-02-22T11:54:52;100432.19;;;20.06;50.00
25232;BME280;13176;51.140;6.290;2023-02-22T12:00:48;100430.13;;;20.56;48.63
25232;BME280;13176;51.140;6.290;2023-02-22T12:03:44;100423.88;;;20.57;48.56
25232;BME280;13176;51.140;6.290;2023-02-22T12:06:48;100428.72;;;20.65;49.60
25232;BME280;13176;51.140;6.290;2023-02-22T12:09:34;100422.88;;;20.15;49.57
25232;BME280;13176;51.140;6.290;2023-02-22T12:15:09;100259.06;;;19.16;50.80
25232;BME280;13176;51.140;6.290;2023-02-22T12:17:56;100376.88;;;19.69;51.22
25232;BME280;13176;51.140;6.290;2023-02-22T12:20:33;100409.34;;;19.88;50.29
25232;BME280;13176;51.140;6.290;2023-02-22T12:25:47;100408.16;;;19.78;48.23
25232;BME280;13176;51.140;6.290;2023-02-22T12:28:21;100388.66;;;19.95;46.08
25232;BME280;13176;51.140;6.290;2023-02-22T12:30:59;100406.97;;;20.15;46.40
25232;BME280;13176;51.140;6.290;2023-02-22T12:33:33;100327.16;;;19.74;46.51
25232;BME280;13176;51.140;6.290;2023-02-22T12:36:10;100275.63;;;19.51;45.85
25232;BME280;13176;51.140;6.290;2023-02-22T12:38:42;100377.47;;;20.05;45.58
25232;BME280;13176;51.140;6.290;2023-02-22T12:41:19;100303.88;;;19.35;46.59
25232;BME280;13176;51.140;6.290;2023-02-22T12:44:14;100383.72;;;19.73;44.77
25232;BME280;13176;51.140;6.290;2023-02-22T12:46:43;100371.63;;;20.00;46.64
25232;BME280;13176;51.140;6.290;2023-02-22T12:49:33;100411.91;;;20.05;47.49
25232;BME280;13176;51.140;6.290;2023-02-22T12:55:20;100340.31;;;20.07;46.66
25232;BME280;13176;51.140;6.290;2023-02-22T12:58:08;100405.84;;;20.48;47.98
25232;BME280;13176;51.140;6.290;2023-02-22T13:00:47;100419.16;;;20.62;46.71
25232;BME280;13176;51.140;6.290;2023-02-22T13:03:33;100415.66;;;20.91;44.74
25232;BME280;13176;51.140;6.290;2023-02-22T13:08:40;100362.19;;;20.10;45.81
25232;BME280;13176;51.140;6.290;2023-02-22T13:11:25;100307.53;;;19.63;47.21
25232;BME280;13176;51.140;6.290;2023-02-22T13:17:06;100323.28;;;19.51;47.37
25232;BME280;13176;51.140;6.290;2023-02-22T13:19:42;100328.41;;;19.23;47.39
25232;BME280;13176;51.140;6.290;2023-02-22T13:28:32;100369.19;;;18.69;50.26
25232;BME280;13176;51.140;6.290;2023-02-22T13:48:28;100358.44;;;19.37;49.64
25232;BME280;13176;51.140;6.290;2023-02-22T14:16:26;100325.94;;;18.03;53.53
25232;BME280;13176;51.140;6.290;2023-02-22T14:21:27;100320.28;;;18.10;53.26
25232;BME280;13176;51.140;6.290;2023-02-22T14:23:55;100370.50;;;18.27;54.24
25232;BME280;13176;51.140;6.290;2023-02-22T14:26:38;100333.41;;;18.12;54.10
25232;BME280;13176;51.140;6.290;2023-02-22T14:29:29;100253.63;;;17.54;55.07
25232;BME280;13176;51.140;6.290;2023-02-22T14:32:09;100285.28;;;17.54;54.80
25232;BME280;13176;51.140;6.290;2023-02-22T14:34:42;100410.38;;;18.04;54.99
25232;BME280;13176;51.140;6.290;2023-02-22T14:37:21;100240.34;;;16.65;55.48
25232;BME280;13176;51.140;6.290;2023-02-22T14:39:56;100350.28;;;17.18;57.00
25232;BME280;13176;51.140;6.290;2023-02-22T14:44:58;100254.44;;;16.64;55.81
25232;BME280;13176;51.140;6.290;2023-02-22T14:47:39;100387.75;;;17.63;55.64
25232;BME280;13176;51.140;6.290;2023-02-22T14:55:56;100417.28;;;17.34;57.07
25232;BME280;13176;51.140;6.290;2023-02-22T15:01:29;100380.03;;;17.04;57.52
25232;BME280;13176;51.140;6.290;2023-02-22T15:06:47;100329.91;;;16.85;57.99
25232;BME280;13176;51.140;6.290;2023-02-22T15:09:21;100313.94;;;16.88;57.96
25232;BME280;13176;51.140;6.290;2023-02-22T15:14:33;100358.66;;;17.28;57.14
25232;BME280;13176;51.140;6.290;2023-02-22T15:17:09;100383.00;;;17.14;58.12
25232;BME280;13176;51.140;6.290;2023-02-22T15:19:39;100332.19;;;16.93;58.26
25232;BME280;13176;51.140;6.290;2023-02-22T15:22:22;100238.13;;;16.38;58.16
25232;BME280;13176;51.140;6.290;2023-02-22T15:25:12;100414.28;;;17.60;57.57
25232;BME280;13176;51.140;6.290;2023-02-22T15:28:30;100415.03;;;17.45;58.48
25232;BME280;13176;51.140;6.290;2023-02-22T15:31:16;100341.25;;;17.06;58.11
25232;BME280;13176;51.140;6.290;2023-02-22T15:33:47;100238.34;;;16.12;58.48